]idnight River — HP7399 — position and weather

sailwx.info

Track history (hours):
 
Tides and Currents Weather Stations Pressure Air Temp Water Temp Dewpoint Dewpoint Depression Visibility Wind Speed Wind Dir Waves Ship Positions

]idnight River

Last reported at 2015-Apr-18 23:31 UTC. Time now 2015-Apr-18 23:38 UTC.
Position N 18°05' W 063°05'.

; draft 9 m.

Type: Ship. MMSI: 352319000.

Date/timePositionNaut miles runAvg speedWind from/ knotsBaromVisibWave heightAir tempDewpointWater temp
2015-Apr-18 23:31N 18°05' W 063°05'0 0.0
2015-Apr-18 22:30N 18°05' W 063°05'0 0.0
2015-Apr-18 21:30N 18°05' W 063°05'0 0.0
2015-Apr-18 20:23N 18°05' W 063°05'0 0.3
2015-Apr-18 19:32N 18°05' W 063°05'0 0.0
2015-Apr-18 18:30N 18°05' W 063°05'0 0.0
2015-Apr-18 17:32N 18°05' W 063°05'0 0.2
2015-Apr-18 16:33N 18°05' W 063°05'1 1.0
2015-Apr-18 15:30N 18°06' W 063°05'1 0.1
2015-Apr-18 07:31N 18°05' W 063°05'0 0.0
2015-Apr-18 06:33N 18°05' W 063°05'0 0.0
2015-Apr-18 05:32N 18°05' W 063°05'0 0.0
2015-Apr-18 04:27N 18°05' W 063°05'0 0.0
2015-Apr-18 03:32N 18°05' W 063°05'0 0.0
2015-Apr-18 02:29N 18°05' W 063°05'0 0.0
2015-Apr-18 00:33N 18°05' W 063°05'0 0.4
2015-Apr-17 23:33N 18°05' W 063°05'0 0.0
2015-Apr-17 22:33N 18°05' W 063°05'0 0.0
2015-Apr-17 21:32N 18°05' W 063°05'0 0.0
2015-Apr-17 20:33N 18°05' W 063°05'0 0.0
2015-Apr-17 19:33N 18°05' W 063°05'0 0.0
2015-Apr-17 18:33N 18°05' W 063°05'0 0.1
2015-Apr-17 17:33N 18°05' W 063°05'0 0.3
2015-Apr-17 16:33N 18°05' W 063°05'0 0.0
2015-Apr-17 07:33N 18°05' W 063°05'0 0.1
2015-Apr-17 06:33N 18°05' W 063°05'0 0.0
2015-Apr-17 05:26N 18°05' W 063°05'0 0.0
2015-Apr-17 04:33N 18°05' W 063°05'0 0.0
2015-Apr-17 03:32N 18°05' W 063°05'0 0.0
2015-Apr-17 02:33N 18°05' W 063°05'0 0.0
2015-Apr-17 01:24N 18°05' W 063°05'0 0.4
2015-Apr-17 00:28N 18°05' W 063°05'0 0.0
2015-Apr-16 23:27N 18°05' W 063°05'0 0.0
2015-Apr-16 22:26N 18°05' W 063°05'0 0.0
2015-Apr-16 21:25N 18°05' W 063°05'0 0.0
2015-Apr-16 20:31N 18°05' W 063°05'0 0.0
2015-Apr-16 19:30N 18°05' W 063°05'1 1.2
2015-Apr-16 18:32N 18°06' W 063°05'1 0.1
2015-Apr-16 07:29N 18°05' W 063°05'0 0.0
2015-Apr-16 06:29N 18°05' W 063°05'0 0.0
2015-Apr-16 04:31N 18°05' W 063°05'0 0.1
2015-Apr-16 01:08N 18°05' W 063°05'0 0.2
2015-Apr-16 00:33N 18°05' W 063°05'0 0.0
2015-Apr-15 23:29N 18°05' W 063°05'0 0.0
2015-Apr-15 22:31N 18°05' W 063°05'0 0.0
2015-Apr-15 21:27N 18°05' W 063°05'6 5.7
2015-Apr-15 20:26N 18°01' W 063°10'1010.0
2015-Apr-15 19:28N 17°52' W 063°07'3 0.4
2015-Apr-15 12:28N 17°49' W 063°06'9 9.0
2015-Apr-15 11:30N 17°57' W 063°08'8 7.5
2015-Apr-15 10:27N 18°05' W 063°07'2 1.8
2015-Apr-15 09:28N 18°05' W 063°05'0 0.0
2015-Apr-15 08:27N 18°05' W 063°05'0 0.0
2015-Apr-15 07:31N 18°05' W 063°05'0 0.0
2015-Apr-15 06:24N 18°05' W 063°05'0 0.0
2015-Apr-15 05:33N 18°05' W 063°05'0 0.0
2015-Apr-15 03:04N 18°05' W 063°05'0 0.0
2015-Apr-15 02:32N 18°05' W 063°05'0 0.0
2015-Apr-15 01:22N 18°05' W 063°05'0 0.0
2015-Apr-15 00:27N 18°05' W 063°05'0 0.4
2015-Apr-14 23:23N 18°05' W 063°05'0 0.0
2015-Apr-14 22:31N 18°05' W 063°05'0 0.0
2015-Apr-14 21:23N 18°05' W 063°05'0 0.0
2015-Apr-14 20:32N 18°05' W 063°05'0 0.0
2015-Apr-14 11:10N 18°05' W 063°05'0 0.0
2015-Apr-14 10:27N 18°05' W 063°05'4 4.5
2015-Apr-14 09:31N 18°06' W 063°09'9 9.6
2015-Apr-14 08:33N 18°08' W 063°19'74 9.2
2015-Apr-14 00:29N 18°24' W 064°35'1 0.0
2015-Apr-12 15:17N 18°25' W 064°36'1 1.7
2015-Apr-12 14:33N 18°24' W 064°35'60 9.9
2015-Apr-12 08:33N 18°11' W 063°34'1010.0
2015-Apr-12 07:32N 18°09' W 063°23'10 9.9
2015-Apr-12 06:31N 18°07' W 063°13'8 8.0
2015-Apr-12 05:32N 18°05' W 063°05'0 0.0
2015-Apr-12 04:31N 18°05' W 063°05'0 0.0
2015-Apr-12 03:29N 18°05' W 063°05'0 0.0
2015-Apr-12 02:30N 18°05' W 063°05'0 0.0
2015-Apr-12 01:32N 18°05' W 063°05'0 0.0
2015-Apr-12 00:32N 18°05' W 063°05'0 0.0
2015-Apr-11 23:30N 18°05' W 063°05'0 0.0
2015-Apr-11 22:33N 18°05' W 063°05'0 0.0
2015-Apr-11 21:33N 18°05' W 063°05'0 0.0
2015-Apr-11 20:31N 18°05' W 063°05'0 0.0
2015-Apr-11 19:30N 18°05' W 063°05'0 0.0
2015-Apr-11 18:33N 18°05' W 063°05'0 0.0
2015-Apr-11 17:33N 18°05' W 063°05'0 0.0
2015-Apr-11 16:30N 18°05' W 063°05'0 0.0
2015-Apr-11 07:30N 18°05' W 063°05'0 0.0
2015-Apr-11 06:16N 18°05' W 063°05'0 0.0
2015-Apr-11 05:13N 18°05' W 063°05'0 0.0
2015-Apr-11 03:32N 18°05' W 063°05'0 0.0
2015-Apr-11 02:33N 18°05' W 063°05'0 0.0
2015-Apr-11 01:22N 18°05' W 063°05'0 0.1
2015-Apr-11 00:22N 18°05' W 063°05'0 0.0
2015-Apr-10 23:22N 18°05' W 063°05'0 0.0
2015-Apr-10 22:32N 18°05' W 063°05'0 0.0
2015-Apr-10 21:31N 18°05' W 063°05'0 0.0
2015-Apr-10 20:33N 18°05' W 063°05'0 0.0
2015-Apr-10 19:33N 18°05' W 063°05'0 0.1
2015-Apr-10 18:26N 18°05' W 063°05'0 0.0
2015-Apr-10 17:26N 18°05' W 063°05'0 0.0
2015-Apr-10 16:31N 18°05' W 063°05'0 0.0
2015-Apr-10 07:32N 18°05' W 063°05'0 0.0
2015-Apr-10 05:33N 18°05' W 063°05'0 0.0
2015-Apr-10 04:32N 18°05' W 063°05'0 0.0
2015-Apr-10 03:32N 18°05' W 063°05'0 0.0
2015-Apr-10 02:13N 18°05' W 063°05'0 0.0
2015-Apr-10 01:33N 18°05' W 063°05'0 0.0
2015-Apr-10 00:28N 18°05' W 063°05'0 0.4
2015-Apr-09 23:31N 18°05' W 063°05'0 0.0
2015-Apr-09 22:32N 18°05' W 063°05'0 0.0
2015-Apr-09 21:31N 18°05' W 063°05'0 0.0
2015-Apr-09 20:32N 18°05' W 063°05'0 0.0
2015-Apr-09 19:33N 18°05' W 063°05'0 0.0
2015-Apr-09 18:33N 18°05' W 063°05'0 0.0
2015-Apr-09 17:32N 18°05' W 063°05'1 0.6
2015-Apr-09 16:29N 18°05' W 063°06'0 0.5
2015-Apr-09 15:33N 18°05' W 063°05'0 0.0
2015-Apr-09 03:33N 18°05' W 063°05'0 0.0
2015-Apr-09 02:26N 18°05' W 063°05'5 5.9
2015-Apr-09 01:31N 18°03' W 063°10'11 9.6
2015-Apr-09 00:21N 17°52' W 063°13'  
Track history (hours):
 
Tides and Currents Weather Stations Pressure Air Temp Water Temp Dewpoint Dewpoint Depression Visibility Wind Speed Wind Dir Waves Ship Positions

]idnight River

Last reported at 2015-Apr-18 23:31 UTC. Time now 2015-Apr-18 23:38 UTC.
Position N 18°05' W 063°05'.

; draft 9 m.

Type: Ship. MMSI: 352319000.

Date/timePositionNaut miles runAvg speedWind from/ knotsBaromVisibWave heightAir tempDewpointWater temp
2015-Apr-18 23:31N 18°05' W 063°05'0 0.0
2015-Apr-18 22:30N 18°05' W 063°05'0 0.0
2015-Apr-18 21:30N 18°05' W 063°05'0 0.0
2015-Apr-18 20:23N 18°05' W 063°05'0 0.3
2015-Apr-18 19:32N 18°05' W 063°05'0 0.0
2015-Apr-18 18:30N 18°05' W 063°05'0 0.0
2015-Apr-18 17:32N 18°05' W 063°05'0 0.2
2015-Apr-18 16:33N 18°05' W 063°05'1 1.0
2015-Apr-18 15:30N 18°06' W 063°05'1 0.1
2015-Apr-18 07:31N 18°05' W 063°05'0 0.0
2015-Apr-18 06:33N 18°05' W 063°05'0 0.0
2015-Apr-18 05:32N 18°05' W 063°05'0 0.0
2015-Apr-18 04:27N 18°05' W 063°05'0 0.0
2015-Apr-18 03:32N 18°05' W 063°05'0 0.0
2015-Apr-18 02:29N 18°05' W 063°05'0 0.0
2015-Apr-18 00:33N 18°05' W 063°05'0 0.4
2015-Apr-17 23:33N 18°05' W 063°05'0 0.0
2015-Apr-17 22:33N 18°05' W 063°05'0 0.0
2015-Apr-17 21:32N 18°05' W 063°05'0 0.0
2015-Apr-17 20:33N 18°05' W 063°05'0 0.0
2015-Apr-17 19:33N 18°05' W 063°05'0 0.0
2015-Apr-17 18:33N 18°05' W 063°05'0 0.1
2015-Apr-17 17:33N 18°05' W 063°05'0 0.3
2015-Apr-17 16:33N 18°05' W 063°05'0 0.0
2015-Apr-17 07:33N 18°05' W 063°05'0 0.1
2015-Apr-17 06:33N 18°05' W 063°05'0 0.0
2015-Apr-17 05:26N 18°05' W 063°05'0 0.0
2015-Apr-17 04:33N 18°05' W 063°05'0 0.0
2015-Apr-17 03:32N 18°05' W 063°05'0 0.0
2015-Apr-17 02:33N 18°05' W 063°05'0 0.0
2015-Apr-17 01:24N 18°05' W 063°05'0 0.4
2015-Apr-17 00:28N 18°05' W 063°05'0 0.0
2015-Apr-16 23:27N 18°05' W 063°05'0 0.0
2015-Apr-16 22:26N 18°05' W 063°05'0 0.0
2015-Apr-16 21:25N 18°05' W 063°05'0 0.0
2015-Apr-16 20:31N 18°05' W 063°05'0 0.0
2015-Apr-16 19:30N 18°05' W 063°05'1 1.2
2015-Apr-16 18:32N 18°06' W 063°05'1 0.1
2015-Apr-16 07:29N 18°05' W 063°05'0 0.0
2015-Apr-16 06:29N 18°05' W 063°05'0 0.0
2015-Apr-16 04:31N 18°05' W 063°05'0 0.1
2015-Apr-16 01:08N 18°05' W 063°05'0 0.2
2015-Apr-16 00:33N 18°05' W 063°05'0 0.0
2015-Apr-15 23:29N 18°05' W 063°05'0 0.0
2015-Apr-15 22:31N 18°05' W 063°05'0 0.0
2015-Apr-15 21:27N 18°05' W 063°05'6 5.7
2015-Apr-15 20:26N 18°01' W 063°10'1010.0
2015-Apr-15 19:28N 17°52' W 063°07'3 0.4
2015-Apr-15 12:28N 17°49' W 063°06'9 9.0
2015-Apr-15 11:30N 17°57' W 063°08'8 7.5
2015-Apr-15 10:27N 18°05' W 063°07'2 1.8
2015-Apr-15 09:28N 18°05' W 063°05'0 0.0
2015-Apr-15 08:27N 18°05' W 063°05'0 0.0
2015-Apr-15 07:31N 18°05' W 063°05'0 0.0
2015-Apr-15 06:24N 18°05' W 063°05'0 0.0
2015-Apr-15 05:33N 18°05' W 063°05'0 0.0
2015-Apr-15 03:04N 18°05' W 063°05'0 0.0
2015-Apr-15 02:32N 18°05' W 063°05'0 0.0
2015-Apr-15 01:22N 18°05' W 063°05'0 0.0
2015-Apr-15 00:27N 18°05' W 063°05'0 0.4
2015-Apr-14 23:23N 18°05' W 063°05'0 0.0
2015-Apr-14 22:31N 18°05' W 063°05'0 0.0
2015-Apr-14 21:23N 18°05' W 063°05'0 0.0
2015-Apr-14 20:32N 18°05' W 063°05'0 0.0
2015-Apr-14 11:10N 18°05' W 063°05'0 0.0
2015-Apr-14 10:27N 18°05' W 063°05'4 4.5
2015-Apr-14 09:31N 18°06' W 063°09'9 9.6
2015-Apr-14 08:33N 18°08' W 063°19'74 9.2
2015-Apr-14 00:29N 18°24' W 064°35'1 0.0
2015-Apr-12 15:17N 18°25' W 064°36'1 1.7
2015-Apr-12 14:33N 18°24' W 064°35'60 9.9
2015-Apr-12 08:33N 18°11' W 063°34'1010.0
2015-Apr-12 07:32N 18°09' W 063°23'10 9.9
2015-Apr-12 06:31N 18°07' W 063°13'8 8.0
2015-Apr-12 05:32N 18°05' W 063°05'0 0.0
2015-Apr-12 04:31N 18°05' W 063°05'0 0.0
2015-Apr-12 03:29N 18°05' W 063°05'0 0.0
2015-Apr-12 02:30N 18°05' W 063°05'0 0.0
2015-Apr-12 01:32N 18°05' W 063°05'0 0.0
2015-Apr-12 00:32N 18°05' W 063°05'0 0.0
2015-Apr-11 23:30N 18°05' W 063°05'0 0.0
2015-Apr-11 22:33N 18°05' W 063°05'0 0.0
2015-Apr-11 21:33N 18°05' W 063°05'0 0.0
2015-Apr-11 20:31N 18°05' W 063°05'0 0.0
2015-Apr-11 19:30N 18°05' W 063°05'0 0.0
2015-Apr-11 18:33N 18°05' W 063°05'0 0.0
2015-Apr-11 17:33N 18°05' W 063°05'0 0.0
2015-Apr-11 16:30N 18°05' W 063°05'0 0.0
2015-Apr-11 07:30N 18°05' W 063°05'0 0.0
2015-Apr-11 06:16N 18°05' W 063°05'0 0.0
2015-Apr-11 05:13N 18°05' W 063°05'0 0.0
2015-Apr-11 03:32N 18°05' W 063°05'0 0.0
2015-Apr-11 02:33N 18°05' W 063°05'0 0.0
2015-Apr-11 01:22N 18°05' W 063°05'0 0.1
2015-Apr-11 00:22N 18°05' W 063°05'0 0.0
2015-Apr-10 23:22N 18°05' W 063°05'0 0.0
2015-Apr-10 22:32N 18°05' W 063°05'0 0.0
2015-Apr-10 21:31N 18°05' W 063°05'0 0.0
2015-Apr-10 20:33N 18°05' W 063°05'0 0.0
2015-Apr-10 19:33N 18°05' W 063°05'0 0.1
2015-Apr-10 18:26N 18°05' W 063°05'0 0.0
2015-Apr-10 17:26N 18°05' W 063°05'0 0.0
2015-Apr-10 16:31N 18°05' W 063°05'0 0.0
2015-Apr-10 07:32N 18°05' W 063°05'0 0.0
2015-Apr-10 05:33N 18°05' W 063°05'0 0.0
2015-Apr-10 04:32N 18°05' W 063°05'0 0.0
2015-Apr-10 03:32N 18°05' W 063°05'0 0.0
2015-Apr-10 02:13N 18°05' W 063°05'0 0.0
2015-Apr-10 01:33N 18°05' W 063°05'0 0.0
2015-Apr-10 00:28N 18°05' W 063°05'0 0.4
2015-Apr-09 23:31N 18°05' W 063°05'0 0.0
2015-Apr-09 22:32N 18°05' W 063°05'0 0.0
2015-Apr-09 21:31N 18°05' W 063°05'0 0.0
2015-Apr-09 20:32N 18°05' W 063°05'0 0.0
2015-Apr-09 19:33N 18°05' W 063°05'0 0.0
2015-Apr-09 18:33N 18°05' W 063°05'0 0.0
2015-Apr-09 17:32N 18°05' W 063°05'1 0.6
2015-Apr-09 16:29N 18°05' W 063°06'0 0.5
2015-Apr-09 15:33N 18°05' W 063°05'0 0.0
2015-Apr-09 03:33N 18°05' W 063°05'0 0.0
2015-Apr-09 02:26N 18°05' W 063°05'5 5.9
2015-Apr-09 01:31N 18°03' W 063°10'11 9.6
2015-Apr-09 00:21N 17°52' W 063°13'  

Dump ship's entire track history